createdAt,value
2023-01-12T00:00:59.205Z,1.83
2023-01-12T00:03:46.705Z,1.88
2023-01-12T00:06:34.594Z,1.75
2023-01-12T00:09:22.021Z,1.65
2023-01-12T00:12:11.961Z,1.88
2023-01-12T00:14:59.319Z,2.33
2023-01-12T00:17:48.237Z,1.65
2023-01-12T00:20:35.684Z,1.60
2023-01-12T00:23:23.844Z,2.45
2023-01-12T00:26:12.136Z,2.33
2023-01-12T00:28:59.585Z,1.90
2023-01-12T00:31:47.317Z,1.88
2023-01-12T00:34:36.266Z,2.22
2023-01-12T00:37:23.504Z,1.83
2023-01-12T00:40:12.309Z,2.33
2023-01-12T00:43:16.840Z,1.80
2023-01-12T00:46:04.586Z,2.33
2023-01-12T00:48:51.906Z,1.52
2023-01-12T00:51:40.907Z,2.28
2023-01-12T00:54:28.356Z,1.65
2023-01-12T00:57:18.086Z,2.25
2023-01-12T01:00:06.901Z,1.30
2023-01-12T01:02:54.626Z,2.70
2023-01-12T01:05:42.228Z,1.83
2023-01-12T01:08:31.314Z,2.60
2023-01-12T01:11:19.072Z,1.92
2023-01-12T01:14:09.169Z,3.08
2023-01-12T01:17:00.020Z,2.40
2023-01-12T01:19:50.050Z,2.20
2023-01-12T01:22:39.750Z,2.55
2023-01-12T01:25:31.913Z,2.22
2023-01-12T01:28:20.600Z,2.17
2023-01-12T01:31:11.133Z,2.03
2023-01-12T01:34:01.168Z,2.25
2023-01-12T01:36:49.898Z,2.00
2023-01-12T01:39:39.731Z,2.40
2023-01-12T01:42:29.482Z,2.25
2023-01-12T01:45:19.014Z,1.83
2023-01-12T01:48:10.947Z,1.85
2023-01-12T01:51:05.284Z,3.25
2023-01-12T01:53:54.418Z,1.92
2023-01-12T01:56:42.676Z,2.50
2023-01-12T01:59:36.358Z,1.95
2023-01-12T02:02:26.684Z,1.83
2023-01-12T02:05:19.593Z,2.20
2023-01-12T02:08:14.517Z,1.90
2023-01-12T02:11:25.568Z,1.65
2023-01-12T02:14:43.575Z,1.73
2023-01-12T02:17:47.159Z,1.67
2023-01-12T02:20:43.949Z,2.15
2023-01-12T02:24:00.449Z,1.40
2023-01-12T02:27:30.103Z,1.95
2023-01-12T02:30:40.201Z,1.65
2023-01-12T02:33:34.909Z,2.08
2023-01-12T02:36:30.263Z,2.13
2023-01-12T02:39:25.529Z,2.47
2023-01-12T02:42:36.786Z,1.70
2023-01-12T02:45:37.406Z,1.77
2023-01-12T02:48:29.231Z,2.40
2023-01-12T02:51:23.696Z,2.42
2023-01-12T02:57:02.263Z,2.20
2023-01-12T02:59:50.599Z,2.17
2023-01-12T03:02:39.369Z,2.58
2023-01-12T03:05:27.030Z,2.70
2023-01-12T03:08:18.607Z,2.20
2023-01-12T03:11:13.148Z,2.47
2023-01-12T03:14:03.765Z,2.10
2023-01-12T03:16:52.643Z,1.88
2023-01-12T03:19:43.012Z,1.95
2023-01-12T03:22:34.916Z,2.15
2023-01-12T03:25:25.154Z,2.65
2023-01-12T03:28:16.524Z,2.00
2023-01-12T03:31:10.977Z,2.65
2023-01-12T03:33:59.013Z,2.80
2023-01-12T03:36:55.722Z,1.70
2023-01-12T03:39:51.222Z,2.13
2023-01-12T03:42:46.870Z,2.50
2023-01-12T03:45:39.867Z,2.50
2023-01-12T03:48:32.505Z,1.77
2023-01-12T03:51:23.572Z,1.38
2023-01-12T03:54:12.389Z,1.75
2023-01-12T03:57:00.697Z,1.70
2023-01-12T03:59:49.847Z,1.85
2023-01-12T04:02:37.273Z,1.83
2023-01-12T04:05:24.698Z,1.63
2023-01-12T04:08:14.615Z,1.70
2023-01-12T04:11:22.804Z,1.70
2023-01-12T04:14:09.845Z,2.60
2023-01-12T04:16:58.277Z,1.83
2023-01-12T04:19:45.910Z,1.58
2023-01-12T04:22:45.255Z,1.98
2023-01-12T04:25:32.977Z,1.63
2023-01-12T04:28:20.277Z,1.52
2023-01-12T04:31:07.867Z,1.60
2023-01-12T04:33:56.578Z,1.80
2023-01-12T04:36:44.129Z,1.67
2023-01-12T04:39:31.351Z,1.20
2023-01-12T04:42:36.180Z,1.60
2023-01-12T04:45:23.416Z,1.65
2023-01-12T04:48:12.917Z,1.40
2023-01-12T04:51:02.467Z,1.05
2023-01-12T04:53:51.407Z,1.42
2023-01-12T04:56:38.899Z,1.67
2023-01-12T04:59:26.315Z,1.33
2023-01-12T05:02:13.697Z,1.45
2023-01-12T05:05:00.959Z,1.48
2023-01-12T05:08:03.623Z,1.40
2023-01-12T05:10:51.026Z,2.10
2023-01-12T05:13:38.533Z,1.23
2023-01-12T05:16:26.391Z,1.80
2023-01-12T05:19:14.270Z,1.70
2023-01-12T05:22:01.603Z,1.45
2023-01-12T05:24:50.407Z,1.10
2023-01-12T05:27:38.091Z,1.42
2023-01-12T05:30:26.411Z,1.55
2023-01-12T05:33:16.565Z,1.40
2023-01-12T05:36:05.536Z,1.27
2023-01-12T05:38:52.851Z,1.40
2023-01-12T05:42:01.965Z,1.00
2023-01-12T05:44:48.151Z,1.42
2023-01-12T05:47:35.713Z,1.40
2023-01-12T05:50:23.338Z,1.08
2023-01-12T05:53:11.501Z,1.90
2023-01-12T05:55:59.647Z,1.30
2023-01-12T05:58:52.613Z,1.38
2023-01-12T06:01:40.475Z,1.10
2023-01-12T06:04:27.829Z,1.10
2023-01-12T06:07:15.872Z,1.27
2023-01-12T06:10:03.155Z,1.33
2023-01-12T06:13:08.911Z,1.30
2023-01-12T06:16:05.208Z,1.05
2023-01-12T06:18:52.873Z,1.05
2023-01-12T06:21:40.656Z,1.25
2023-01-12T06:24:29.287Z,1.17
2023-01-12T06:27:17.433Z,1.30
2023-01-12T06:30:05.560Z,1.40
2023-01-12T06:32:54.242Z,1.17
2023-01-12T06:35:48.657Z,1.15
2023-01-12T06:38:37.198Z,1.17
2023-01-12T06:41:42.057Z,1.10
2023-01-12T06:47:16.088Z,1.02
2023-01-12T06:50:05.490Z,1.45
2023-01-12T06:52:53.167Z,1.65
2023-01-12T06:55:40.640Z,1.50
2023-01-12T06:58:28.241Z,1.13
2023-01-12T07:01:17.175Z,1.35
2023-01-12T07:04:04.650Z,1.77
2023-01-12T07:06:56.314Z,1.40
2023-01-12T07:09:43.733Z,1.05
2023-01-12T07:12:30.886Z,1.10
2023-01-12T07:15:18.227Z,1.40
2023-01-12T07:18:05.788Z,1.20
2023-01-12T07:20:53.196Z,1.40
2023-01-12T07:23:43.723Z,1.42
2023-01-12T07:26:31.491Z,1.42
2023-01-12T07:29:18.875Z,1.70
2023-01-12T07:32:06.459Z,1.45
2023-01-12T07:34:54.086Z,1.33
2023-01-12T07:37:47.542Z,1.50
2023-01-12T07:40:36.552Z,2.00
2023-01-12T07:43:23.567Z,1.70
2023-01-12T07:46:11.125Z,1.88
2023-01-12T07:48:58.954Z,1.63
2023-01-12T07:51:46.106Z,1.80
2023-01-12T07:54:33.723Z,1.80
2023-01-12T07:57:23.024Z,1.95
2023-01-12T08:00:11.285Z,1.80
2023-01-12T08:03:06.175Z,1.70
2023-01-12T08:05:55.038Z,1.92
2023-01-12T08:08:43.008Z,2.20
2023-01-12T08:11:30.832Z,2.30
2023-01-12T08:14:25.669Z,2.10
2023-01-12T08:17:18.650Z,2.72
2023-01-12T08:20:12.073Z,2.28
2023-01-12T08:23:03.755Z,2.63
2023-01-12T08:25:56.265Z,2.10
2023-01-12T08:28:48.434Z,2.33
2023-01-12T08:31:39.369Z,2.72
2023-01-12T08:34:28.239Z,2.40
2023-01-12T08:37:20.103Z,2.13
2023-01-12T08:40:09.531Z,2.20
2023-01-12T08:42:57.185Z,1.98
2023-01-12T08:45:44.923Z,1.65
2023-01-12T08:48:34.067Z,1.63
2023-01-12T08:51:21.763Z,1.45
2023-01-12T08:54:10.290Z,1.88
2023-01-12T08:56:57.562Z,1.60
2023-01-12T08:59:45.010Z,1.17
2023-01-12T09:02:32.238Z,1.75
2023-01-12T09:05:21.159Z,1.50
2023-01-12T09:08:08.472Z,1.13
2023-01-12T09:11:03.071Z,1.30
2023-01-12T09:13:50.898Z,1.70
2023-01-12T09:16:38.422Z,1.75
2023-01-12T09:19:25.897Z,1.30
2023-01-12T09:22:14.928Z,1.35
2023-01-12T09:25:02.566Z,1.50
2023-01-12T09:27:50.244Z,1.48
2023-01-12T09:30:37.805Z,1.17
2023-01-12T09:33:25.663Z,1.20
2023-01-12T09:36:15.959Z,1.38
2023-01-12T09:39:05.916Z,1.48
2023-01-12T09:42:10.854Z,1.58
2023-01-12T09:45:15.532Z,1.80
2023-01-12T09:48:04.071Z,1.58
2023-01-12T09:50:52.809Z,1.90
2023-01-12T09:53:42.558Z,1.85
2023-01-12T09:56:38.125Z,1.60
2023-01-12T09:59:39.745Z,1.50
2023-01-12T10:02:28.006Z,1.27
2023-01-12T10:05:26.091Z,1.60
2023-01-12T10:08:27.584Z,1.17
2023-01-12T10:11:17.871Z,1.55
2023-01-12T10:14:19.496Z,1.70
2023-01-12T10:17:14.447Z,1.35
2023-01-12T10:20:04.109Z,1.90
2023-01-12T10:22:53.873Z,1.90
2023-01-12T10:25:42.040Z,1.48
2023-01-12T10:28:30.022Z,1.85
2023-01-12T10:31:21.526Z,1.60
2023-01-12T10:34:09.712Z,1.58
2023-01-12T10:37:04.372Z,1.98
2023-01-12T10:39:52.931Z,1.85
2023-01-12T10:42:57.376Z,1.88
2023-01-12T10:45:44.541Z,1.40
2023-01-12T10:48:32.898Z,1.60
2023-01-12T10:51:22.129Z,1.45
2023-01-12T10:54:11.623Z,1.65
2023-01-12T10:57:00.190Z,1.52
2023-01-12T10:59:51.901Z,1.52
2023-01-12T11:02:44.039Z,1.58
2023-01-12T11:05:36.903Z,1.63
2023-01-12T11:08:24.455Z,1.48
2023-01-12T11:11:23.767Z,1.70
2023-01-12T11:14:24.121Z,1.98
2023-01-12T11:17:22.786Z,1.60
2023-01-12T11:20:16.443Z,1.40
2023-01-12T11:23:05.937Z,2.03
2023-01-12T11:25:54.335Z,1.88
2023-01-12T11:28:43.871Z,1.30
2023-01-12T11:31:33.425Z,1.20
2023-01-12T11:34:23.077Z,1.10
2023-01-12T11:37:13.289Z,1.50
2023-01-12T11:40:05.372Z,1.58
2023-01-12T11:43:11.202Z,1.70
2023-01-12T11:46:02.669Z,1.75
2023-01-12T11:48:52.830Z,1.40
2023-01-12T11:51:40.419Z,1.65
2023-01-12T11:54:28.646Z,1.73
2023-01-12T11:57:31.767Z,1.70
2023-01-12T12:00:27.876Z,1.85
2023-01-12T12:03:28.253Z,1.70
2023-01-12T12:06:25.723Z,1.92
2023-01-12T12:09:22.363Z,1.45
2023-01-12T12:12:13.340Z,1.58
2023-01-12T12:15:10.374Z,2.00
2023-01-12T12:18:03.148Z,1.48
2023-01-12T12:20:57.403Z,1.50
2023-01-12T12:23:52.906Z,2.15
2023-01-12T12:26:42.181Z,1.38
2023-01-12T12:29:35.258Z,1.35
2023-01-12T12:32:32.221Z,1.42
2023-01-12T12:35:37.454Z,1.80
2023-01-12T12:38:28.140Z,1.77
2023-01-12T12:41:41.490Z,1.95
2023-01-12T12:44:52.049Z,1.70
2023-01-12T12:47:55.342Z,1.30
2023-01-12T12:50:48.196Z,1.08
2023-01-12T12:53:41.796Z,1.60
2023-01-12T12:56:30.443Z,1.80
2023-01-12T12:59:52.097Z,1.10
2023-01-12T13:02:40.546Z,1.17
2023-01-12T13:05:51.008Z,1.20
2023-01-12T13:08:42.396Z,1.05
2023-01-12T13:11:44.142Z,1.10
2023-01-12T13:14:31.866Z,1.10
2023-01-12T13:17:33.588Z,1.10
2023-01-12T13:20:39.045Z,1.30
2023-01-12T13:23:44.726Z,0.98
2023-01-12T13:26:41.599Z,1.20
2023-01-12T13:29:41.937Z,1.33
2023-01-12T13:32:32.500Z,0.75
2023-01-12T13:35:50.111Z,1.15
2023-01-12T13:38:43.927Z,1.08
2023-01-12T13:41:51.807Z,0.80
2023-01-12T13:44:41.472Z,1.00
2023-01-12T13:47:32.940Z,0.90
2023-01-12T13:50:20.771Z,0.80
2023-01-12T13:53:20.194Z,0.98
2023-01-12T13:56:08.577Z,0.82
2023-01-12T13:59:02.105Z,0.90
2023-01-12T14:01:49.611Z,1.10
2023-01-12T14:04:47.385Z,0.63
2023-01-12T14:07:43.459Z,1.00
2023-01-12T14:10:36.990Z,1.02
2023-01-12T14:13:31.593Z,1.00
2023-01-12T14:16:37.226Z,0.90
2023-01-12T14:19:27.741Z,0.70
2023-01-12T14:22:18.270Z,1.00
2023-01-12T14:25:14.399Z,0.88
2023-01-12T14:28:01.467Z,0.82
2023-01-12T14:30:50.377Z,0.95
2023-01-12T14:33:41.203Z,1.00
2023-01-12T14:36:29.440Z,0.75
2023-01-12T14:39:20.198Z,0.70
2023-01-12T14:42:25.076Z,0.88
2023-01-12T14:48:20.205Z,1.00
2023-01-12T14:51:23.625Z,0.80
2023-01-12T14:54:18.457Z,0.70
2023-01-12T14:57:07.405Z,0.90
2023-01-12T14:59:55.115Z,0.90
2023-01-12T15:02:42.727Z,0.82
2023-01-12T15:05:30.967Z,0.82
2023-01-12T15:08:26.736Z,1.00
2023-01-12T15:11:15.596Z,1.08
2023-01-12T15:14:03.033Z,1.00
2023-01-12T15:17:07.281Z,1.10
2023-01-12T15:20:11.741Z,1.15
2023-01-12T15:23:16.261Z,0.85
2023-01-12T15:28:51.311Z,1.65
2023-01-12T15:31:39.405Z,1.40
2023-01-12T15:34:26.611Z,1.27
2023-01-12T15:37:15.075Z,1.20
2023-01-12T15:40:01.931Z,1.10
2023-01-12T15:42:53.090Z,1.38
2023-01-12T15:45:42.566Z,1.38
2023-01-12T15:48:30.138Z,1.50
2023-01-12T15:51:17.215Z,1.15
2023-01-12T15:54:05.054Z,1.40
2023-01-12T15:56:53.852Z,1.67
2023-01-12T15:59:41.103Z,1.80
2023-01-12T16:02:33.780Z,1.65
2023-01-12T16:05:22.055Z,1.38
2023-01-12T16:08:09.002Z,1.40
2023-01-12T16:11:13.297Z,1.55
2023-01-12T16:14:00.251Z,1.17
2023-01-12T16:16:47.276Z,0.98
2023-01-12T16:19:41.261Z,1.50
2023-01-12T16:22:28.660Z,1.02
2023-01-12T16:25:15.876Z,1.20
2023-01-12T16:28:02.827Z,1.60
2023-01-12T16:30:49.826Z,1.60
2023-01-12T16:33:36.782Z,1.40
2023-01-12T16:36:25.164Z,1.20
2023-01-12T16:39:12.801Z,1.25
2023-01-12T16:42:03.584Z,1.40
2023-01-12T16:44:51.150Z,1.52
2023-01-12T16:47:38.529Z,1.33
2023-01-12T16:50:25.439Z,1.35
2023-01-12T16:53:13.893Z,1.02
2023-01-12T16:56:03.165Z,1.15
2023-01-12T16:58:50.472Z,1.40
2023-01-12T17:01:37.850Z,1.75
2023-01-12T17:04:25.092Z,1.40
2023-01-12T17:07:12.554Z,1.05
2023-01-12T17:10:01.161Z,1.40
2023-01-12T17:12:54.488Z,1.35
2023-01-12T17:15:47.732Z,2.45
2023-01-12T17:18:36.672Z,1.50
2023-01-12T17:21:24.568Z,1.33
2023-01-12T17:24:13.159Z,1.20
2023-01-12T17:27:01.538Z,1.35
2023-01-12T17:29:49.899Z,1.27
2023-01-12T17:32:36.931Z,1.40
2023-01-12T17:35:23.982Z,1.42
2023-01-12T17:38:11.355Z,1.33
2023-01-12T17:40:58.053Z,1.92
2023-01-12T17:43:45.258Z,1.75
2023-01-12T17:46:32.548Z,1.55
2023-01-12T17:49:20.143Z,1.70
2023-01-12T17:52:07.004Z,1.80
2023-01-12T17:54:53.838Z,1.63
2023-01-12T17:57:40.844Z,1.85
2023-01-12T18:00:29.202Z,1.58
2023-01-12T18:03:16.237Z,1.85
2023-01-12T18:06:09.061Z,1.60
2023-01-12T18:09:00.230Z,1.40
2023-01-12T18:11:47.541Z,1.35
2023-01-12T18:14:34.599Z,1.27
2023-01-12T18:17:24.841Z,1.20
2023-01-12T18:20:12.355Z,1.35
2023-01-12T18:22:59.453Z,1.60
2023-01-12T18:25:46.655Z,1.20
2023-01-12T18:28:33.475Z,1.10
2023-01-12T18:31:21.121Z,1.33
2023-01-12T18:34:09.421Z,1.85
2023-01-12T18:36:56.483Z,1.58
2023-01-12T18:39:44.227Z,1.38
2023-01-12T18:42:48.703Z,1.10
2023-01-12T18:45:35.691Z,1.27
2023-01-12T18:48:21.711Z,1.55
2023-01-12T18:51:27.436Z,1.33
2023-01-12T18:54:14.478Z,1.70
2023-01-12T18:57:01.340Z,1.90
2023-01-12T18:59:49.187Z,2.13
2023-01-12T19:02:36.326Z,1.60
2023-01-12T19:05:28.541Z,1.90
2023-01-12T19:08:34.123Z,2.42
2023-01-12T19:11:21.198Z,2.30
2023-01-12T19:14:26.094Z,2.67
2023-01-12T19:17:29.781Z,2.50
2023-01-12T19:20:17.499Z,2.80
2023-01-12T19:23:22.101Z,2.22
2023-01-12T19:26:25.626Z,2.28
2023-01-12T19:29:12.928Z,2.80
2023-01-12T19:32:00.660Z,2.10
2023-01-12T19:34:49.228Z,2.03
2023-01-12T19:37:37.301Z,1.65
2023-01-12T19:40:28.281Z,1.80
2023-01-12T19:43:19.778Z,1.65
2023-01-12T19:46:07.122Z,1.48
2023-01-12T19:48:54.173Z,1.67
2023-01-12T19:51:40.929Z,1.80
2023-01-12T19:54:29.850Z,1.98
2023-01-12T19:57:16.798Z,1.88
2023-01-12T20:00:06.089Z,1.85
2023-01-12T20:02:53.447Z,1.80
2023-01-12T20:05:41.253Z,1.45
2023-01-12T20:08:28.534Z,1.65
2023-01-12T20:11:16.288Z,1.67
2023-01-12T20:14:03.109Z,1.35
2023-01-12T20:16:51.597Z,1.40
2023-01-12T20:19:38.896Z,1.25
2023-01-12T20:22:25.943Z,1.52
2023-01-12T20:25:13.352Z,2.20
2023-01-12T20:28:00.446Z,1.75
2023-01-12T20:30:48.017Z,1.80
2023-01-12T20:33:36.906Z,2.10
2023-01-12T20:36:24.012Z,1.48
2023-01-12T20:39:11.834Z,1.90
2023-01-12T20:41:59.491Z,1.60
2023-01-12T20:44:46.903Z,1.38
2023-01-12T20:47:34.808Z,1.65
2023-01-12T20:50:25.498Z,1.20
2023-01-12T20:53:13.034Z,1.35
2023-01-12T20:56:00.202Z,1.30
2023-01-12T20:58:47.729Z,1.10
2023-01-12T21:01:35.582Z,1.20
2023-01-12T21:04:24.180Z,0.90
2023-01-12T21:07:13.226Z,1.20
2023-01-12T21:10:00.600Z,1.02
2023-01-12T21:12:48.166Z,1.10
2023-01-12T21:15:35.761Z,1.20
2023-01-12T21:18:23.412Z,1.17
2023-01-12T21:21:11.956Z,1.17
2023-01-12T21:24:01.226Z,1.52
2023-01-12T21:26:48.598Z,1.25
2023-01-12T21:29:35.960Z,1.75
2023-01-12T21:32:27.033Z,1.65
2023-01-12T21:35:14.754Z,1.60
2023-01-12T21:38:01.935Z,1.45
2023-01-12T21:40:50.533Z,1.60
2023-01-12T21:43:37.880Z,1.80
2023-01-12T21:46:25.909Z,1.77
2023-01-12T21:49:13.590Z,1.65
2023-01-12T21:52:00.958Z,1.80
2023-01-12T21:54:48.296Z,2.05
2023-01-12T21:57:37.366Z,2.15
2023-01-12T22:00:25.540Z,1.95
2023-01-12T22:03:12.670Z,1.85
2023-01-12T22:06:04.414Z,2.03
2023-01-12T22:08:51.594Z,1.95
2023-01-12T22:11:39.143Z,2.15
2023-01-12T22:14:27.984Z,2.30
2023-01-12T22:17:15.189Z,1.58
2023-01-12T22:20:02.066Z,1.33
2023-01-12T22:22:49.389Z,1.63
2023-01-12T22:25:36.335Z,1.45
2023-01-12T22:28:24.036Z,1.45
2023-01-12T22:31:13.029Z,1.38
2023-01-12T22:34:05.501Z,1.52
2023-01-12T22:36:52.819Z,1.13
2023-01-12T22:39:39.710Z,1.30
2023-01-12T22:42:47.009Z,1.38
2023-01-12T22:45:35.548Z,1.15
2023-01-12T22:48:24.309Z,1.10
2023-01-12T22:51:11.630Z,1.20
2023-01-12T22:53:58.790Z,1.27
2023-01-12T22:56:46.415Z,0.80
2023-01-12T22:59:33.658Z,1.40
2023-01-12T23:02:37.657Z,1.30
2023-01-12T23:05:26.263Z,1.55
2023-01-12T23:08:13.225Z,1.17
2023-01-12T23:11:03.865Z,1.27
2023-01-12T23:13:51.705Z,1.23
2023-01-12T23:16:38.783Z,0.90
2023-01-12T23:19:25.647Z,1.10
2023-01-12T23:22:14.008Z,1.27
2023-01-12T23:25:00.998Z,1.00
2023-01-12T23:27:47.899Z,1.25
2023-01-12T23:30:35.054Z,1.20
2023-01-12T23:33:22.083Z,1.25
2023-01-12T23:36:10.683Z,1.10
2023-01-12T23:39:00.268Z,1.17
2023-01-12T23:41:47.602Z,1.23
2023-01-12T23:44:34.498Z,1.10
2023-01-12T23:47:21.240Z,1.02
2023-01-12T23:50:08.556Z,1.10
2023-01-12T23:52:55.705Z,1.25
2023-01-12T23:55:43.942Z,1.13
2023-01-12T23:58:30.759Z,1.17
